Pope AFB, North Carolina
Current Conditions -  °F | °C
As of 7:58 AM on Friday 31 Oct 2014 (Local Time) from KPOB Reporting Station
Clear Clear  
Wind Chill: 42°   Ceiling: Unl
Heat Index: 42°   Visibility: 10mi
Dew Point: 41°   Wind: 0mph
Humidity: 94%   Direction: NA
Pressure: 29.94"   Gusts: NA
Location:  35.17°N, 79.01°W
Report Text: KPOB 311158Z AUTO 00000KT 10SM CLR 06/05 A2994 RMK AO2 SLP142 70003 T00580049 10065 20055 55002
Loading
Personal Weather Stations






























Interactive Weather Map
Tropical Storm Tracking
New forecast layout! Learn more

10-Day Weather Forecast

Advertisements
Track Severe Weather on mobile